Terminal Aerodrome Forecast
Issued by NWS

Current Version | Previous Version | Text Only | Print | Product List | Glossary On
Versions: 1 2 3 4 5 6 7 8 9 10 11 12 13 14
000
FTUS42 TJSJ 271700
TAFIST
TAF
TIST 271720Z 2718/2818 08011KT P6SM VCSH SCT025 SCT035
     FM272300 06005KT P6SM FEW025 SCT040
     FM281300 12010KT P6SM VCSH SCT025=

USA.gov is the U.S. government's official web portal to all federal, state and local government web resources and services.